Time;durP1;ratioP1;P1;durP2;ratioP2;P2;SDS_P1;SDS_P2;PMS_P1;PMS_P2;Temp;Humidity;BMP_temperature;BMP_pressure;BME280_temperature;BME280_humidity;BME280_pressure;Samples;Min_cycle;Max_cycle;Signal;HPM_P1;HPM_P2
2023/05/04 00:01:17;;;;;;;13.70;7.10;;;;;;;;;;6168749;23;20386;-80
2023/05/04 00:03:43;;;;;;;12.63;7.20;;;;;;;;;;6218228;23;20366;-80
2023/05/04 00:06:21;;;;;;;13.10;7.30;;;;;;;;;;6192922;23;20366;-80
2023/05/04 00:08:59;;;;;;;13.40;6.88;;;;;;;;;;6173553;23;20770;-82
2023/05/04 00:11:26;;;;;;;14.98;7.30;;;;;;;;;;6218359;23;20370;-81
2023/05/04 00:13:55;;;;;;;12.02;6.90;;;;;;;;;;6192683;23;20405;-81
2023/05/04 00:16:24;;;;;;;12.98;7.30;;;;;;;;;;6192238;23;20899;-81
2023/05/04 00:19:00;;;;;;;12.82;7.50;;;;;;;;;;6192807;23;20366;-81
2023/05/04 00:21:34;;;;;;;13.05;7.10;;;;;;;;;;6190871;23;20382;-80
2023/05/04 00:24:03;;;;;;;14.10;7.47;;;;;;;;;;6192198;23;20366;-80
2023/05/04 00:26:29;;;;;;;17.15;7.97;;;;;;;;;;6192731;23;20368;-80
2023/05/04 00:28:55;;;;;;;13.27;7.03;;;;;;;;;;6168655;23;20358;-80
2023/05/04 00:31:21;;;;;;;14.95;7.30;;;;;;;;;;6217342;23;20384;-80
2023/05/04 00:33:48;;;;;;;15.38;7.32;;;;;;;;;;6192297;23;20373;-80
2023/05/04 00:36:14;;;;;;;12.38;7.20;;;;;;;;;;6166568;23;20404;-80
2023/05/04 00:38:48;;;;;;;13.13;6.95;;;;;;;;;;6167226;23;20424;-80
2023/05/04 00:41:14;;;;;;;14.15;7.15;;;;;;;;;;6192523;23;20389;-80
2023/05/04 00:43:41;;;;;;;14.43;7.47;;;;;;;;;;6193260;23;20362;-79
2023/05/04 00:46:07;;;;;;;12.60;6.72;;;;;;;;;;6192913;23;20362;-80
2023/05/04 00:48:34;;;;;;;15.77;7.47;;;;;;;;;;6217746;23;20471;-80
2023/05/04 00:51:03;;;;;;;12.88;7.15;;;;;;;;;;6191864;23;20835;-80
2023/05/04 00:53:30;;;;;;;12.38;7.20;;;;;;;;;;6167348;23;20405;-81
2023/05/04 00:55:56;;;;;;;12.57;6.95;;;;;;;;;;6191950;23;20393;-80
2023/05/04 00:58:23;;;;;;;14.10;7.47;;;;;;;;;;6167990;23;20432;-81
2023/05/04 01:00:49;;;;;;;13.77;6.95;;;;;;;;;;6217691;23;20439;-79
2023/05/04 01:03:15;;;;;;;12.40;6.70;;;;;;;;;;6244034;23;20392;-81
2023/05/04 01:05:47;;;;;;;13.70;7.00;;;;;;;;;;6167460;23;20930;-80
2023/05/04 01:08:14;;;;;;;14.15;7.40;;;;;;;;;;6192903;23;20692;-79
2023/05/04 01:10:40;;;;;;;15.40;7.18;;;;;;;;;;6191880;23;20366;-80
2023/05/04 01:13:09;;;;;;;12.03;6.90;;;;;;;;;;6193043;23;20370;-80
2023/05/04 01:15:35;;;;;;;15.38;7.28;;;;;;;;;;6192855;23;20366;-80
2023/05/04 01:18:06;;;;;;;13.85;7.03;;;;;;;;;;6217223;23;20424;-81
2023/05/04 01:20:32;;;;;;;13.57;7.00;;;;;;;;;;6192189;23;20443;-79
2023/05/04 01:22:59;;;;;;;14.20;6.95;;;;;;;;;;6191577;23;20362;-80
2023/05/04 01:25:30;;;;;;;12.70;6.90;;;;;;;;;;6167932;23;20449;-80
2023/05/04 01:27:58;;;;;;;15.30;6.90;;;;;;;;;;6191653;23;20384;-81
2023/05/04 01:30:45;;;;;;;12.37;7.30;;;;;;;;;;6191145;23;20457;-80
2023/05/04 01:33:11;;;;;;;12.23;6.68;;;;;;;;;;6216095;23;20373;-81
2023/05/04 01:35:48;;;;;;;13.68;7.10;;;;;;;;;;6217735;23;20369;-81
2023/05/04 01:38:23;;;;;;;16.58;7.00;;;;;;;;;;6186836;23;20373;-81
2023/05/04 01:40:52;;;;;;;14.10;6.90;;;;;;;;;;6213806;23;20915;-82
2023/05/04 01:43:21;;;;;;;15.65;7.20;;;;;;;;;;6168227;23;20358;-81
2023/05/04 01:45:47;;;;;;;12.95;7.10;;;;;;;;;;6217561;23;20400;-81
2023/05/04 01:48:13;;;;;;;15.65;7.80;;;;;;;;;;6192440;23;20832;-80
2023/05/04 01:50:40;;;;;;;13.33;7.40;;;;;;;;;;6191796;23;20428;-80
2023/05/04 01:53:06;;;;;;;14.90;7.15;;;;;;;;;;6166057;23;20405;-80
2023/05/04 01:55:32;;;;;;;14.50;7.25;;;;;;;;;;6191254;23;20381;-80
2023/05/04 01:57:58;;;;;;;13.20;7.50;;;;;;;;;;6192480;23;20436;-80
2023/05/04 02:00:25;;;;;;;13.32;7.72;;;;;;;;;;6217391;23;20386;-80
2023/05/04 02:02:54;;;;;;;12.95;7.35;;;;;;;;;;6191740;23;20427;-80
2023/05/04 02:05:20;;;;;;;13.50;7.22;;;;;;;;;;6192664;23;20447;-80
2023/05/04 02:07:46;;;;;;;13.60;7.72;;;;;;;;;;6166783;23;20449;-80
2023/05/04 02:10:12;;;;;;;16.25;7.82;;;;;;;;;;6167377;23;20424;-80
2023/05/04 02:12:39;;;;;;;14.90;7.45;;;;;;;;;;6217027;23;20369;-80
2023/05/04 02:15:05;;;;;;;15.80;8.00;;;;;;;;;;6192037;23;20687;-80
2023/05/04 02:17:37;;;;;;;14.50;7.63;;;;;;;;;;6192677;23;20863;-80
2023/05/04 02:20:06;;;;;;;14.18;7.47;;;;;;;;;;6192535;23;20832;-81
2023/05/04 02:22:33;;;;;;;15.23;7.80;;;;;;;;;;6191195;23;20362;-81
2023/05/04 02:24:59;;;;;;;14.33;7.87;;;;;;;;;;6191413;23;20362;-81
2023/05/04 02:27:25;;;;;;;13.73;7.65;;;;;;;;;;6191164;23;20384;-81
2023/05/04 02:29:51;;;;;;;15.82;7.35;;;;;;;;;;6217026;23;20362;-81
2023/05/04 02:32:20;;;;;;;16.08;7.85;;;;;;;;;;6167791;23;20377;-81
2023/05/04 02:34:46;;;;;;;13.35;7.47;;;;;;;;;;6216928;23;20362;-81
2023/05/04 02:37:13;;;;;;;13.57;7.90;;;;;;;;;;6167280;23;20366;-81
2023/05/04 02:39:39;;;;;;;17.50;8.32;;;;;;;;;;6192384;23;20729;-80
2023/05/04 02:42:05;;;;;;;16.67;8.57;;;;;;;;;;6166928;23;20720;-80
2023/05/04 02:44:31;;;;;;;16.90;8.35;;;;;;;;;;6191664;23;20723;-81
2023/05/04 02:46:58;;;;;;;16.33;8.30;;;;;;;;;;6216764;23;20354;-81
2023/05/04 02:49:24;;;;;;;15.07;8.13;;;;;;;;;;6193083;23;20423;-81
2023/05/04 02:51:52;;;;;;;15.50;8.10;;;;;;;;;;6193400;23;20378;-79
2023/05/04 02:54:24;;;;;;;14.48;8.20;;;;;;;;;;6194840;23;20396;-79
2023/05/04 02:56:53;;;;;;;15.75;8.00;;;;;;;;;;6193095;23;20449;-81
2023/05/04 02:59:19;;;;;;;15.07;8.18;;;;;;;;;;6193924;23;20366;-81
2023/05/04 03:01:45;;;;;;;15.50;8.32;;;;;;;;;;6167779;23;20447;-80
2023/05/04 03:04:12;;;;;;;14.02;8.30;;;;;;;;;;6192653;23;20366;-81
2023/05/04 03:06:38;;;;;;;14.20;8.15;;;;;;;;;;6193894;23;20366;-80
2023/05/04 03:09:04;;;;;;;14.90;8.17;;;;;;;;;;6168724;23;20447;-80
2023/05/04 03:11:30;;;;;;;15.85;8.82;;;;;;;;;;6217869;23;20449;-80
2023/05/04 03:13:59;;;;;;;15.87;8.83;;;;;;;;;;6193826;23;20700;-79
2023/05/04 03:16:29;;;;;;;17.90;9.02;;;;;;;;;;6193889;23;20851;-79
2023/05/04 03:18:55;;;;;;;14.48;8.77;;;;;;;;;;6168432;23;20851;-80
2023/05/04 03:21:21;;;;;;;17.30;9.30;;;;;;;;;;6193957;23;20484;-80
2023/05/04 03:23:48;;;;;;;17.97;9.27;;;;;;;;;;6193714;23;20478;-81
2023/05/04 03:26:14;;;;;;;16.10;9.38;;;;;;;;;;6166866;23;20362;-81
2023/05/04 03:28:40;;;;;;;16.55;9.00;;;;;;;;;;6192304;23;20388;-81
2023/05/04 03:31:08;;;;;;;18.25;9.07;;;;;;;;;;6193696;23;20366;-81
2023/05/04 03:33:34;;;;;;;17.20;9.03;;;;;;;;;;6169649;23;20387;-82
2023/05/04 03:36:01;;;;;;;16.88;8.98;;;;;;;;;;6168530;23;20366;-82
2023/05/04 03:38:31;;;;;;;18.85;9.70;;;;;;;;;;6191593;23;20844;-81
2023/05/04 03:41:25;;;;;;;17.45;9.95;;;;;;;;;;6216368;23;20387;-82
2023/05/04 03:44:00;;;;;;;18.70;10.10;;;;;;;;;;6219016;23;20362;-80
2023/05/04 03:46:34;;;;;;;15.88;9.43;;;;;;;;;;6192810;23;20684;-80
2023/05/04 03:49:26;;;;;;;17.23;10.30;;;;;;;;;;6170317;23;20362;-82
2023/05/04 03:51:52;;;;;;;17.08;9.80;;;;;;;;;;6191362;23;20377;-82
2023/05/04 03:54:18;;;;;;;17.67;10.37;;;;;;;;;;6192852;23;20536;-80
2023/05/04 03:56:52;;;;;;;17.48;10.38;;;;;;;;;;6212899;23;20398;-79
2023/05/04 03:59:24;;;;;;;16.10;9.75;;;;;;;;;;6188633;23;20450;-80
2023/05/04 04:02:09;;;;;;;17.65;9.90;;;;;;;;;;6212132;23;20447;-79
2023/05/04 04:04:37;;;;;;;17.95;10.38;;;;;;;;;;6212616;23;20891;-80
2023/05/04 04:07:07;;;;;;;15.75;9.77;;;;;;;;;;6188590;23;20375;-80
2023/05/04 04:09:39;;;;;;;17.03;10.27;;;;;;;;;;6213590;23;20368;-81
2023/05/04 04:12:12;;;;;;;17.10;9.55;;;;;;;;;;6187845;23;20833;-80
2023/05/04 04:14:47;;;;;;;18.80;10.33;;;;;;;;;;6212328;23;20378;-80
2023/05/04 04:17:16;;;;;;;19.02;11.20;;;;;;;;;;6186076;23;20442;-81
2023/05/04 04:19:42;;;;;;;16.15;9.73;;;;;;;;;;6187996;23;20725;-81
2023/05/04 04:22:08;;;;;;;17.45;10.18;;;;;;;;;;6213165;23;20402;-81
2023/05/04 04:24:35;;;;;;;15.93;9.80;;;;;;;;;;6215318;23;20366;-80
2023/05/04 04:27:06;;;;;;;18.13;10.27;;;;;;;;;;6213076;23;20409;-81
2023/05/04 04:29:34;;;;;;;16.38;10.02;;;;;;;;;;6161868;23;20387;-81
2023/05/04 04:32:01;;;;;;;16.95;9.88;;;;;;;;;;6137019;23;20375;-80
2023/05/04 04:34:27;;;;;;;17.90;9.80;;;;;;;;;;6187047;23;20483;-80
2023/05/04 04:37:00;;;;;;;19.00;9.70;;;;;;;;;;6185243;23;20368;-80
2023/05/04 04:39:26;;;;;;;16.63;9.57;;;;;;;;;;6139180;23;20368;-80
2023/05/04 04:41:53;;;;;;;16.42;9.00;;;;;;;;;;6210057;23;20395;-81
2023/05/04 04:44:24;;;;;;;20.55;10.25;;;;;;;;;;6162490;23;20359;-81
2023/05/04 04:46:50;;;;;;;16.65;9.85;;;;;;;;;;6137722;23;20363;-81
2023/05/04 04:49:16;;;;;;;19.20;9.43;;;;;;;;;;6185940;23;20450;-81
2023/05/04 04:51:43;;;;;;;16.88;9.85;;;;;;;;;;6186222;23;20432;-81
2023/05/04 04:54:10;;;;;;;16.25;9.25;;;;;;;;;;6137522;23;20522;-81
2023/05/04 04:56:41;;;;;;;19.15;9.40;;;;;;;;;;6186384;23;20392;-81
2023/05/04 04:59:09;;;;;;;18.73;9.70;;;;;;;;;;6185259;23;20467;-81
2023/05/04 05:01:36;;;;;;;17.45;9.27;;;;;;;;;;6185908;23;20391;-81
2023/05/04 05:04:03;;;;;;;15.23;8.80;;;;;;;;;;6137456;23;20424;-82
2023/05/04 05:06:30;;;;;;;17.55;9.25;;;;;;;;;;6136887;23;20399;-82
2023/05/04 05:08:58;;;;;;;16.60;9.02;;;;;;;;;;6163011;23;20370;-81
2023/05/04 05:11:29;;;;;;;15.25;8.88;;;;;;;;;;6135823;23;20457;-79
2023/05/04 05:13:58;;;;;;;14.77;8.60;;;;;;;;;;6153500;23;20367;-82
2023/05/04 05:16:24;;;;;;;16.67;8.90;;;;;;;;;;6186988;23;20457;-83
2023/05/04 05:18:51;;;;;;;16.92;9.43;;;;;;;;;;6212559;23;20370;-82
2023/05/04 05:21:21;;;;;;;17.02;9.35;;;;;;;;;;6188234;23;20842;-82
2023/05/04 05:23:47;;;;;;;14.23;8.35;;;;;;;;;;6188626;23;20422;-84
2023/05/04 05:26:13;;;;;;;15.20;8.40;;;;;;;;;;6212385;23;20367;-83
2023/05/04 05:28:40;;;;;;;16.53;8.60;;;;;;;;;;6213664;23;20363;-83
2023/05/04 05:31:06;;;;;;;15.90;8.50;;;;;;;;;;6211850;23;20378;-82
2023/05/04 05:33:32;;;;;;;14.65;8.77;;;;;;;;;;6187296;23;20402;-82
2023/05/04 05:36:04;;;;;;;17.20;8.52;;;;;;;;;;6186432;23;20375;-82
2023/05/04 05:38:31;;;;;;;14.98;8.40;;;;;;;;;;6212058;23;20378;-81
2023/05/04 05:40:57;;;;;;;14.32;8.50;;;;;;;;;;6210288;23;20388;-81
2023/05/04 05:43:23;;;;;;;15.95;8.18;;;;;;;;;;6211276;23;20698;-80
2023/05/04 05:45:49;;;;;;;16.23;8.65;;;;;;;;;;6211866;23;20395;-82
2023/05/04 05:48:15;;;;;;;14.93;7.90;;;;;;;;;;6211624;23;20845;-81
2023/05/04 05:50:41;;;;;;;15.45;8.73;;;;;;;;;;6186336;23;20368;-81
2023/05/04 05:53:08;;;;;;;16.35;8.40;;;;;;;;;;6187381;23;20458;-81
2023/05/04 05:55:34;;;;;;;14.77;8.90;;;;;;;;;;6214038;23;20434;-81
2023/05/04 05:58:00;;;;;;;17.70;8.38;;;;;;;;;;6215006;23;20372;-81
2023/05/04 06:00:26;;;;;;;12.98;7.57;;;;;;;;;;6190411;23;20391;-81
2023/05/04 06:02:54;;;;;;;14.05;8.13;;;;;;;;;;6213744;23;20379;-81
2023/05/04 06:05:20;;;;;;;14.20;8.20;;;;;;;;;;6213233;23;20462;-77
2023/05/04 06:07:46;;;;;;;16.00;8.30;;;;;;;;;;6218312;23;20370;-77
2023/05/04 06:10:12;;;;;;;13.73;7.70;;;;;;;;;;6215673;23;20443;-80
2023/05/04 06:12:38;;;;;;;14.63;8.68;;;;;;;;;;6215522;23;20466;-81
2023/05/04 06:15:05;;;;;;;15.57;8.45;;;;;;;;;;6215672;23;20374;-79
2023/05/04 06:17:31;;;;;;;19.23;9.00;;;;;;;;;;6218004;23;20368;-80
2023/05/04 06:19:57;;;;;;;13.38;8.85;;;;;;;;;;6217814;23;20465;-80
2023/05/04 06:22:23;;;;;;;12.80;7.85;;;;;;;;;;6239018;23;20359;-81
2023/05/04 06:24:50;;;;;;;13.73;8.23;;;;;;;;;;6213374;23;20364;-82
2023/05/04 06:27:16;;;;;;;17.30;8.50;;;;;;;;;;6212518;23;20364;-79
2023/05/04 06:29:42;;;;;;;15.75;8.27;;;;;;;;;;6188685;23;20371;-81
2023/05/04 06:32:09;;;;;;;15.35;8.07;;;;;;;;;;6216209;23;20367;-78
2023/05/04 06:34:35;;;;;;;15.57;8.18;;;;;;;;;;6213118;23;20368;-81
2023/05/04 06:37:02;;;;;;;15.00;8.23;;;;;;;;;;6213007;23;20394;-82
2023/05/04 06:39:28;;;;;;;19.75;8.40;;;;;;;;;;6212953;23;20426;-82
2023/05/04 06:41:54;;;;;;;13.75;8.00;;;;;;;;;;6189289;23;20398;-81
2023/05/04 06:44:21;;;;;;;15.17;7.60;;;;;;;;;;6215771;23;20513;-81
2023/05/04 06:46:47;;;;;;;12.90;7.50;;;;;;;;;;6214239;23;20430;-81
2023/05/04 06:49:13;;;;;;;11.88;7.68;;;;;;;;;;6217775;23;20737;-81
2023/05/04 06:51:39;;;;;;;13.35;7.25;;;;;;;;;;6239674;23;20402;-81
2023/05/04 06:54:06;;;;;;;13.18;7.20;;;;;;;;;;6214021;23;20402;-82
2023/05/04 06:56:32;;;;;;;15.85;7.68;;;;;;;;;;6215879;23;20449;-80
2023/05/04 06:58:58;;;;;;;12.85;7.60;;;;;;;;;;6189193;23;20690;-81
2023/05/04 07:01:24;;;;;;;13.73;7.53;;;;;;;;;;6189626;23;20928;-81
2023/05/04 07:03:50;;;;;;;14.45;8.07;;;;;;;;;;6214009;23;20363;-80
2023/05/04 07:06:17;;;;;;;14.77;7.40;;;;;;;;;;6213594;23;20518;-79
2023/05/04 07:08:43;;;;;;;12.02;7.05;;;;;;;;;;6213682;23;20378;-80
2023/05/04 07:11:10;;;;;;;15.02;7.75;;;;;;;;;;6214694;23;20393;-80
2023/05/04 07:13:37;;;;;;;12.70;7.50;;;;;;;;;;6190580;23;20545;-80
2023/05/04 07:16:06;;;;;;;15.87;8.20;;;;;;;;;;6215304;23;20366;-80
2023/05/04 07:18:32;;;;;;;14.90;7.57;;;;;;;;;;6215982;23;20383;-80
2023/05/04 07:20:58;;;;;;;12.00;7.05;;;;;;;;;;6213532;23;20443;-81
2023/05/04 07:23:24;;;;;;;14.07;7.45;;;;;;;;;;6187945;23;20363;-79
2023/05/04 07:25:50;;;;;;;12.07;7.13;;;;;;;;;;6192335;23;20370;-79
2023/05/04 07:28:16;;;;;;;13.52;7.55;;;;;;;;;;6216342;23;20363;-79
2023/05/04 07:30:42;;;;;;;14.80;7.47;;;;;;;;;;6216753;23;20430;-80
2023/05/04 07:33:08;;;;;;;14.05;7.72;;;;;;;;;;6214514;23;20407;-82
2023/05/04 07:35:35;;;;;;;14.32;7.55;;;;;;;;;;6213386;23;20379;-82
2023/05/04 07:38:02;;;;;;;12.13;7.00;;;;;;;;;;6214027;23;20375;-81
2023/05/04 07:40:28;;;;;;;11.50;7.00;;;;;;;;;;6214293;23;20394;-82
2023/05/04 07:42:55;;;;;;;14.25;7.07;;;;;;;;;;6212076;23;20375;-81
2023/05/04 07:45:21;;;;;;;13.27;7.03;;;;;;;;;;6214051;23;20374;-80
2023/05/04 07:47:47;;;;;;;15.20;7.57;;;;;;;;;;6214246;23;20356;-79
2023/05/04 07:50:13;;;;;;;11.35;6.55;;;;;;;;;;6212679;23;20371;-82
2023/05/04 07:52:39;;;;;;;13.20;6.57;;;;;;;;;;6214769;23;20371;-81
2023/05/04 07:55:06;;;;;;;13.43;6.85;;;;;;;;;;6215153;23;20364;-82
2023/05/04 07:57:34;;;;;;;14.18;7.10;;;;;;;;;;6169931;23;20365;-81
2023/05/04 08:00:00;;;;;;;11.68;6.03;;;;;;;;;;6194070;23;20358;-81
2023/05/04 08:02:26;;;;;;;12.95;7.00;;;;;;;;;;6245501;23;20358;-83
2023/05/04 08:04:52;;;;;;;12.75;7.50;;;;;;;;;;6192951;23;20441;-82
2023/05/04 08:07:19;;;;;;;11.50;6.25;;;;;;;;;;6167804;23;20362;-82
2023/05/04 08:09:45;;;;;;;11.03;6.23;;;;;;;;;;6195182;23;20366;-82
2023/05/04 08:12:11;;;;;;;10.02;6.40;;;;;;;;;;6218477;23;20844;-82
2023/05/04 08:14:38;;;;;;;11.13;6.75;;;;;;;;;;6216399;23;20373;-82
2023/05/04 08:17:04;;;;;;;11.50;6.65;;;;;;;;;;6218574;23;20366;-82
2023/05/04 08:19:30;;;;;;;12.98;6.53;;;;;;;;;;6193728;23;20366;-83
2023/05/04 08:21:59;;;;;;;10.95;6.20;;;;;;;;;;6192978;23;20437;-82
2023/05/04 08:24:25;;;;;;;11.97;6.73;;;;;;;;;;6192061;23;20816;-81
2023/05/04 08:26:51;;;;;;;12.77;6.75;;;;;;;;;;6192098;23;20441;-82
2023/05/04 08:29:17;;;;;;;13.65;6.38;;;;;;;;;;6193019;23;20373;-82
2023/05/04 08:31:43;;;;;;;11.63;6.30;;;;;;;;;;6169280;23;20681;-82
2023/05/04 08:34:09;;;;;;;11.55;6.18;;;;;;;;;;6194624;23;20362;-83
2023/05/04 08:36:35;;;;;;;13.90;6.80;;;;;;;;;;6219033;23;20385;-82
2023/05/04 08:39:02;;;;;;;11.63;6.20;;;;;;;;;;6167493;23;20358;-80
2023/05/04 08:41:28;;;;;;;11.60;6.35;;;;;;;;;;6194563;23;20386;-81
2023/05/04 08:43:54;;;;;;;13.48;6.88;;;;;;;;;;6192977;23;20405;-81
2023/05/04 08:46:21;;;;;;;10.47;6.47;;;;;;;;;;6168640;23;20366;-82
2023/05/04 08:48:47;;;;;;;9.57;6.03;;;;;;;;;;6218174;23;20779;-80
2023/05/04 08:51:14;;;;;;;11.82;5.93;;;;;;;;;;6191953;23;20365;-82
2023/05/04 08:53:44;;;;;;;9.25;6.03;;;;;;;;;;6194155;23;20400;-80
2023/05/04 08:56:12;;;;;;;10.98;6.25;;;;;;;;;;6193341;23;20917;-80
2023/05/04 08:58:43;;;;;;;10.30;6.07;;;;;;;;;;6193915;23;20366;-81
2023/05/04 09:01:10;;;;;;;11.80;6.20;;;;;;;;;;6193882;23;20413;-80
2023/05/04 09:03:36;;;;;;;13.52;6.10;;;;;;;;;;6219675;23;20361;-81
2023/05/04 09:06:02;;;;;;;11.30;5.90;;;;;;;;;;6193878;23;20874;-80
2023/05/04 09:08:28;;;;;;;14.32;6.22;;;;;;;;;;6168961;23;20424;-81
2023/05/04 09:10:54;;;;;;;11.95;6.00;;;;;;;;;;6168667;22;20366;-80
2023/05/04 09:13:20;;;;;;;11.60;5.95;;;;;;;;;;6169272;23;20866;-80
2023/05/04 09:15:54;;;;;;;11.48;5.97;;;;;;;;;;6169644;23;20397;-82
2023/05/04 09:18:20;;;;;;;10.93;6.10;;;;;;;;;;6193737;23;20397;-81
2023/05/04 09:20:46;;;;;;;11.57;5.80;;;;;;;;;;6194061;23;20417;-81
2023/05/04 09:23:13;;;;;;;10.38;6.15;;;;;;;;;;6193879;23;20366;-81
2023/05/04 09:25:47;;;;;;;10.50;5.93;;;;;;;;;;6193889;23;20373;-81
2023/05/04 09:28:14;;;;;;;10.93;5.70;;;;;;;;;;6218925;23;20729;-81
2023/05/04 09:30:40;;;;;;;10.55;5.97;;;;;;;;;;6193176;23;20393;-81
2023/05/04 09:33:06;;;;;;;10.60;5.40;;;;;;;;;;6217746;23;20369;-81
2023/05/04 09:35:32;;;;;;;11.15;5.60;;;;;;;;;;6193157;23;20366;-80
2023/05/04 09:37:58;;;;;;;9.70;5.80;;;;;;;;;;6217994;23;20851;-82
2023/05/04 09:40:31;;;;;;;11.90;5.67;;;;;;;;;;6168755;23;20390;-85
2023/05/04 09:42:57;;;;;;;13.32;5.20;;;;;;;;;;6194421;23;20863;-84
2023/05/04 09:45:24;;;;;;;11.20;5.55;;;;;;;;;;6193827;23;20449;-84
2023/05/04 09:47:51;;;;;;;12.13;6.07;;;;;;;;;;6193792;23;20369;-84
2023/05/04 09:50:21;;;;;;;13.63;5.68;;;;;;;;;;6193932;23;20500;-84
2023/05/04 09:52:47;;;;;;;10.45;5.18;;;;;;;;;;6196632;23;20519;-81
2023/05/04 09:55:18;;;;;;;9.50;5.00;;;15.90;99.90;;;;;;6220493;23;20365;-84
2023/05/04 09:57:45;;;;;;;9.07;5.30;;;15.50;99.90;;;;;;6223320;23;20375;-84
2023/05/04 10:00:12;;;;;;;9.98;5.43;;;;;;;;;;6196572;23;20370;-82
2023/05/04 10:02:39;;;;;;;8.10;5.23;;;16.00;99.90;;;;;;6172957;23;20440;-83
2023/05/04 10:05:08;;;;;;;9.77;5.30;;;16.30;99.90;;;;;;6196860;23;20361;-84
2023/05/04 10:07:34;;;;;;;8.00;5.28;;;;;;;;;;6197078;23;20372;-82
2023/05/04 10:10:00;;;;;;;9.60;5.03;;;;;;;;;;6228119;23;20666;-84
2023/05/04 10:12:26;;;;;;;12.35;5.18;;;;;;;;;;6223763;23;20365;-84
2023/05/04 10:14:52;;;;;;;8.18;5.20;;;;;;;;;;6196927;23;20370;-83
2023/05/04 10:17:31;;;;;;;11.50;5.45;;;;;;;;;;6197359;23;20366;-83
2023/05/04 10:19:57;;;;;;;9.13;5.03;;;;;;;;;;6196100;23;20369;-83
2023/05/04 10:22:43;;;;;;;11.10;5.05;;;;;;;;;;6221113;23;20385;-82
2023/05/04 10:25:09;;;;;;;11.52;5.00;;;;;;;;;;6196798;23;20366;-82
2023/05/04 10:27:59;;;;;;;11.43;5.03;;;;;;;;;;6194120;23;20369;-83
2023/05/04 10:30:25;;;;;;;8.85;5.13;;;;;;;;;;6153215;23;20377;-83
2023/05/04 10:32:56;;;;;;;9.63;5.13;;;16.60;99.90;;;;;;6194745;23;20578;-83
2023/05/04 10:35:22;;;;;;;9.55;4.45;;;;;;;;;;6170575;23;20366;-83
2023/05/04 10:37:53;;;;;;;8.53;5.20;;;;;;;;;;6222102;23;20466;-82
2023/05/04 10:40:39;;;;;;;9.68;5.20;;;;;;;;;;6220232;23;20380;-82
2023/05/04 10:43:06;;;;;;;12.57;5.20;;;16.90;99.90;;;;;;6193496;23;20397;-83
2023/05/04 10:45:42;;;;;;;10.63;5.22;;;;;;;;;;6193698;23;20657;-82
2023/05/04 10:48:09;;;;;;;9.57;4.75;;;;;;;;;;6195848;23;20424;-82
2023/05/04 10:50:46;;;;;;;9.23;4.60;;;;;;;;;;6173060;23;20393;-83
2023/05/04 10:53:13;;;;;;;8.52;4.93;;;;;;;;;;6172021;23;20366;-83
2023/05/04 10:55:42;;;;;;;10.43;5.40;;;17.20;99.90;;;;;;6219684;23;20786;-84
2023/05/04 10:58:10;;;;;;;9.53;4.97;;;;;;;;;;6195456;23;20366;-81
2023/05/04 11:00:37;;;;;;;15.45;4.93;;;;;;;;;;6169572;23;20412;-81
2023/05/04 11:03:03;;;;;;;10.52;4.30;;;;;;;;;;6167654;23;20358;-81
2023/05/04 11:05:39;;;;;;;10.98;4.72;;;;;;;;;;6217527;23;20361;-80
2023/05/04 11:08:34;;;;;;;10.90;4.60;;;17.50;99.90;;;;;;6218753;23;20688;-80
2023/05/04 11:11:08;;;;;;;8.55;4.10;;;17.60;99.90;;;;;;6162253;22;20373;-81
2023/05/04 11:13:34;;;;;;;7.53;4.50;;;;;;;;;;6218166;23;20485;-81
2023/05/04 11:16:00;;;;;;;10.98;4.60;;;;;;;;;;6218769;23;20380;-82
2023/05/04 11:18:29;;;;;;;8.48;4.40;;;;;;;;;;6218239;23;20362;-77
2023/05/04 11:20:55;;;;;;;9.63;4.90;;;;;;;;;;6243628;23;20382;-78
2023/05/04 11:23:22;;;;;;;9.88;4.78;;;;;;;;;;6189914;23;20739;-77
2023/05/04 11:25:48;;;;;;;7.63;4.88;;;;;;;;;;6215923;23;20672;-78
2023/05/04 11:28:14;;;;;;;9.82;4.70;;;;;;;;;;6243284;23;20364;-78
2023/05/04 11:30:42;;;;;;;9.40;4.53;;;;;;;;;;6243480;23;20416;-78
2023/05/04 11:33:13;;;;;;;9.30;4.63;;;;;;;;;;6216928;23;20453;-78
2023/05/04 11:35:41;;;;;;;8.23;5.10;;;;;;;;;;6217509;23;20415;-78
2023/05/04 11:38:10;;;;;;;9.63;5.15;;;;;;;;;;6218314;23;20358;-79
2023/05/04 11:40:39;;;;;;;11.73;5.20;;;;;;;;;;6193575;23;20719;-78
2023/05/04 11:43:09;;;;;;;7.77;4.57;;;;;;;;;;6219185;23;20381;-79
2023/05/04 11:45:36;;;;;;;12.43;5.10;;;;;;;;;;6244376;23;20366;-78
2023/05/04 11:48:03;;;;;;;8.98;5.00;;;;;;;;;;6218047;23;20358;-79
2023/05/04 11:50:30;;;;;;;9.63;5.00;;;;;;;;;;6244621;23;20369;-78
2023/05/04 11:53:03;;;;;;;9.65;5.10;;;;;;;;;;6220220;23;20370;-77
2023/05/04 11:55:30;;;;;;;9.23;5.00;;;;;;;;;;6193013;23;20389;-79
2023/05/04 11:57:57;;;;;;;12.83;5.07;;;;;;;;;;6244467;23;20366;-78
2023/05/04 12:00:33;;;;;;;10.82;5.05;;;;;;;;;;6193039;23;20366;-79
2023/05/04 12:02:59;;;;;;;11.15;5.22;;;;;;;;;;6191081;23;20368;-78
2023/05/04 12:05:27;;;;;;;10.63;5.35;;;;;;;;;;6170405;23;20449;-79
2023/05/04 12:07:53;;;;;;;13.25;5.60;;;;;;;;;;6192484;23;20388;-78
2023/05/04 12:10:27;;;;;;;9.73;5.47;;;;;;;;;;6192879;23;20890;-79
2023/05/04 12:12:53;;;;;;;8.57;5.25;;;;;;;;;;6191735;23;20730;-78
2023/05/04 12:15:32;;;;;;;8.80;5.68;;;;;;;;;;6217332;23;20366;-77
2023/05/04 12:17:58;;;;;;;10.13;5.60;;;;;;;;;;6216695;23;20427;-79
2023/05/04 12:20:27;;;;;;;10.05;5.78;;;;;;;;;;6245654;23;20365;-79
2023/05/04 12:22:53;;;;;;;8.38;5.35;;;;;;;;;;6193308;23;20468;-79
2023/05/04 12:25:19;;;;;;;10.52;5.53;;;;;;;;;;6246156;23;20445;-78
2023/05/04 12:27:45;;;;;;;9.63;5.20;;;;;;;;;;6193563;23;20361;-78
2023/05/04 12:30:12;;;;;;;7.20;4.80;;;;;;;;;;6193232;23;20485;-79
2023/05/04 12:32:38;;;;;;;9.25;4.97;;;;;;;;;;6192702;23;20366;-79
2023/05/04 12:35:05;;;;;;;9.33;5.20;;;;;;;;;;6217945;23;20358;-81
2023/05/04 12:37:31;;;;;;;9.23;5.35;;;;;;;;;;6218795;23;20668;-81
2023/05/04 12:39:57;;;;;;;7.78;4.88;;;;;;;;;;6195307;23;20424;-81
2023/05/04 12:42:23;;;;;;;10.18;5.30;;;;;;;;;;6220577;23;20389;-81
2023/05/04 12:44:49;;;;;;;9.23;4.95;;;;;;;;;;6194768;23;20370;-80
2023/05/04 12:47:23;;;;;;;11.68;5.22;;;;;;;;;;6194739;23;20365;-80
2023/05/04 12:49:49;;;;;;;9.18;5.05;;;;;;;;;;6195022;23;20878;-80
2023/05/04 12:52:15;;;;;;;7.97;4.65;;;;;;;;;;6218428;23;20366;-79
2023/05/04 12:54:41;;;;;;;9.77;5.20;;;;;;;;;;6192467;23;20397;-81
2023/05/04 12:57:08;;;;;;;10.18;5.50;;;;;;;;;;6193456;23;20382;-81
2023/05/04 12:59:34;;;;;;;8.10;5.05;;;;;;;;;;6191951;23;20362;-81
2023/05/04 13:02:00;;;;;;;9.50;4.82;;;;;;;;;;6245038;23;20385;-81
2023/05/04 13:04:27;;;;;;;8.82;4.78;;;;;;;;;;6217214;23;20362;-80
2023/05/04 13:06:53;;;;;;;10.60;4.78;;;;;;;;;;6191263;23;20370;-81
2023/05/04 13:09:19;;;;;;;9.23;4.50;;;;;;;;;;6192596;23;20413;-80
2023/05/04 13:11:46;;;;;;;9.32;4.10;;;;;;;;;;6217819;23;20373;-80
2023/05/04 13:14:13;;;;;;;7.70;4.30;;;;;;;;;;6219790;23;20378;-80
2023/05/04 13:16:40;;;;;;;8.40;4.18;;;;;;;;;;6219557;23;20727;-80
2023/05/04 13:19:06;;;;;;;8.43;4.63;;;;;;;;;;6244269;23;20350;-81
2023/05/04 13:21:32;;;;;;;8.75;4.72;;;;;;;;;;6219678;23;20393;-80
2023/05/04 13:23:59;;;;;;;8.43;4.47;;;;;;;;;;6217651;23;20420;-80
2023/05/04 13:26:25;;;;;;;9.03;4.70;;;;;;;;;;6192017;23;20412;-80
2023/05/04 13:28:51;;;;;;;8.03;4.40;;;;;;;;;;6245547;23;20365;-80
2023/05/04 13:31:18;;;;;;;10.68;4.50;;;;;;;;;;6218000;23;20406;-81
2023/05/04 13:33:44;;;;;;;8.77;4.35;;;;;;;;;;6218991;23;20402;-78
2023/05/04 13:36:10;;;;;;;9.27;4.82;;;;;;;;;;6192181;23;20451;-79
2023/05/04 13:38:37;;;;;;;8.90;4.32;;;;;;;;;;6216543;23;20365;-79
2023/05/04 13:41:03;;;;;;;6.78;3.78;;;;;;;;;;6193583;23;20390;-80
2023/05/04 13:43:29;;;;;;;8.13;4.43;;;;;;;;;;6193301;23;20401;-80
2023/05/04 13:45:56;;;;;;;8.43;3.90;;;;;;;;;;6191753;23;20362;-80
2023/05/04 13:48:24;;;;;;;10.40;4.40;;;;;;;;;;6216814;23;20405;-79
2023/05/04 13:50:51;;;;;;;7.65;3.80;;;;;;;;;;6191276;23;20449;-80
2023/05/04 13:53:17;;;;;;;8.95;4.20;;;;;;;;;;6245074;23;20365;-80
2023/05/04 13:55:45;;;;;;;6.50;4.07;;;;;;;;;;6244262;23;20763;-79
2023/05/04 13:58:11;;;;;;;8.55;3.78;;;;;;;;;;6246194;23;20419;-80
2023/05/04 14:00:37;;;;;;;7.40;3.35;;;;;;;;;;6218724;23;20481;-80
2023/05/04 14:03:03;;;;;;;7.13;3.38;;;;;;;;;;6218875;23;20369;-79
2023/05/04 14:05:29;;;;;;;7.10;3.95;;;;;;;;;;6219043;23;20370;-79
2023/05/04 14:07:55;;;;;;;9.95;3.95;;;;;;;;;;6245714;23;20361;-79
2023/05/04 14:10:21;;;;;;;8.25;4.13;;;;;;;;;;6218947;23;20368;-78
2023/05/04 14:12:47;;;;;;;6.30;3.53;;;;;;;;;;6244821;22;20808;-79
2023/05/04 14:15:15;;;;;;;11.50;3.83;;;;;;;;;;6216387;23;20372;-80
2023/05/04 14:17:41;;;;;;;7.15;3.80;;;;;;;;;;6192295;23;20398;-80
2023/05/04 14:20:07;;;;;;;10.52;3.70;;;;;;;;;;6218819;23;20411;-80
2023/05/04 14:22:33;;;;;;;5.93;3.50;;;;;;;;;;6218627;23;20396;-80
2023/05/04 14:24:59;;;;;;;8.10;4.00;;;;;;;;;;6192673;23;20365;-80
2023/05/04 14:27:26;;;;;;;7.75;3.65;;;;;;;;;;6190585;23;20365;-80
2023/05/04 14:29:52;;;;;;;8.40;3.97;;;;;;;;;;6194314;23;20794;-80
2023/05/04 14:32:18;;;;;;;6.65;3.70;;;;;;;;;;6222869;23;20676;-80